createdAt,value
2018-07-06T00:00:25.038Z,20.5
2018-07-06T00:01:25.016Z,20.52
2018-07-06T00:02:25.150Z,20.51
2018-07-06T00:03:25.018Z,20.43
2018-07-06T00:04:25.031Z,20.41
2018-07-06T00:05:25.013Z,20.37
2018-07-06T00:06:25.008Z,20.4
2018-07-06T00:07:25.016Z,20.41
2018-07-06T00:08:25.022Z,20.37
2018-07-06T00:09:25.046Z,20.37
2018-07-06T00:10:25.014Z,20.4
2018-07-06T00:11:25.029Z,20.4
2018-07-06T00:12:25.296Z,20.4
2018-07-06T00:13:25.001Z,20.39
2018-07-06T00:14:25.022Z,20.39
2018-07-06T00:15:25.014Z,20.4
2018-07-06T00:16:24.992Z,20.44
2018-07-06T00:17:25.018Z,20.41
2018-07-06T00:18:25.009Z,20.32
2018-07-06T00:19:25.056Z,20.3
2018-07-06T00:20:25.019Z,20.34
2018-07-06T00:21:25.000Z,20.34
2018-07-06T00:22:25.006Z,20.39
2018-07-06T00:23:25.023Z,20.4
2018-07-06T00:24:25.012Z,20.4
2018-07-06T00:25:25.046Z,20.4
2018-07-06T00:26:25.007Z,20.43
2018-07-06T00:27:25.000Z,20.37
2018-07-06T00:28:24.997Z,20.37
2018-07-06T00:29:25.043Z,20.36
2018-07-06T00:30:25.030Z,20.34
2018-07-06T00:31:25.021Z,20.34
2018-07-06T00:32:24.983Z,20.37
2018-07-06T00:33:25.078Z,20.39
2018-07-06T00:34:25.076Z,20.37
2018-07-06T00:35:25.035Z,20.36
2018-07-06T00:36:25.043Z,20.39
2018-07-06T00:37:25.008Z,20.37
2018-07-06T00:38:25.012Z,20.3
2018-07-06T00:39:25.000Z,20.29
2018-07-06T00:40:25.012Z,20.29
2018-07-06T00:41:25.016Z,20.27
2018-07-06T00:42:25.016Z,20.29
2018-07-06T00:43:25.027Z,20.26
2018-07-06T00:44:25.020Z,20.24
2018-07-06T00:45:25.004Z,20.23
2018-07-06T00:46:25.123Z,20.22
2018-07-06T00:47:25.103Z,20.22
2018-07-06T00:48:25.055Z,20.24
2018-07-06T00:49:25.082Z,20.23
2018-07-06T00:50:24.988Z,20.26
2018-07-06T00:51:25.076Z,20.24
2018-07-06T00:52:24.996Z,20.3
2018-07-06T00:53:24.984Z,20.27
2018-07-06T00:54:24.995Z,20.29
2018-07-06T00:55:24.985Z,20.27
2018-07-06T00:56:25.085Z,20.24
2018-07-06T00:57:25.040Z,20.2
2018-07-06T00:58:25.007Z,20.24
2018-07-06T00:59:25.004Z,20.23
2018-07-06T01:00:25.080Z,20.24
2018-07-06T01:01:25.047Z,20.27
2018-07-06T01:02:25.023Z,20.27
2018-07-06T01:03:25.053Z,20.26
2018-07-06T01:04:25.127Z,20.23
2018-07-06T01:05:25.011Z,20.2
2018-07-06T01:06:25.000Z,20.17
2018-07-06T01:07:25.058Z,20.16
2018-07-06T01:08:25.026Z,20.17
2018-07-06T01:09:25.050Z,20.2
2018-07-06T01:10:25.031Z,20.19
2018-07-06T01:11:24.980Z,20.22
2018-07-06T01:12:24.990Z,20.2
2018-07-06T01:13:25.020Z,20.2
2018-07-06T01:14:24.999Z,20.22
2018-07-06T01:15:24.990Z,20.22
2018-07-06T01:16:25.006Z,20.24
2018-07-06T01:17:25.154Z,20.24
2018-07-06T01:18:24.988Z,20.27
2018-07-06T01:19:25.005Z,20.24
2018-07-06T01:20:24.994Z,20.27
2018-07-06T01:21:25.009Z,20.26
2018-07-06T01:22:25.018Z,20.26
2018-07-06T01:23:24.984Z,20.27
2018-07-06T01:24:25.017Z,20.32
2018-07-06T01:25:24.983Z,20.32
2018-07-06T01:26:24.988Z,20.32
2018-07-06T01:27:24.978Z,20.33
2018-07-06T01:28:25.347Z,20.33
2018-07-06T01:29:24.992Z,20.34
2018-07-06T01:30:25.001Z,20.34
2018-07-06T01:31:25.016Z,20.33
2018-07-06T01:32:25.004Z,20.34
2018-07-06T01:33:25.093Z,20.33
2018-07-06T01:34:25.022Z,20.34
2018-07-06T01:35:25.032Z,20.32
2018-07-06T01:36:24.984Z,20.33
2018-07-06T01:37:25.029Z,20.36
2018-07-06T01:38:24.988Z,20.33
2018-07-06T01:39:24.989Z,20.32
2018-07-06T01:40:24.977Z,20.32
2018-07-06T01:41:25.068Z,20.32
2018-07-06T01:42:25.135Z,20.33
2018-07-06T01:43:25.012Z,20.32
2018-07-06T01:44:24.975Z,20.32
2018-07-06T01:45:25.031Z,20.27
2018-07-06T01:46:25.013Z,20.29
2018-07-06T01:47:24.987Z,20.29
2018-07-06T01:48:25.012Z,20.26
2018-07-06T01:49:25.042Z,20.29
2018-07-06T01:50:24.978Z,20.24
2018-07-06T01:51:24.971Z,20.24
2018-07-06T01:52:24.976Z,20.23
2018-07-06T01:53:24.986Z,20.23
2018-07-06T01:54:24.984Z,20.2
2018-07-06T01:55:24.985Z,20.22
2018-07-06T01:56:24.975Z,20.2
2018-07-06T01:57:25.098Z,20.22
2018-07-06T01:58:25.075Z,20.23
2018-07-06T01:59:25.016Z,20.23
2018-07-06T02:00:25.189Z,20.22
2018-07-06T02:01:25.071Z,20.22
2018-07-06T02:02:24.966Z,20.22
2018-07-06T02:03:25.021Z,20.19
2018-07-06T02:04:25.043Z,20.19
2018-07-06T02:05:24.990Z,20.16
2018-07-06T02:06:24.978Z,20.15
2018-07-06T02:07:24.965Z,20.17
2018-07-06T02:08:25.176Z,20.17
2018-07-06T02:09:25.116Z,20.09
2018-07-06T02:10:24.995Z,20.11
2018-07-06T02:11:24.988Z,20.08
2018-07-06T02:12:24.957Z,20.06
2018-07-06T02:13:25.013Z,20.05
2018-07-06T02:14:24.965Z,20.04
2018-07-06T02:15:25.073Z,20.01
2018-07-06T02:16:25.033Z,20.01
2018-07-06T02:17:24.970Z,20.02
2018-07-06T02:18:25.110Z,20.05
2018-07-06T02:19:25.052Z,20.08
2018-07-06T02:20:24.958Z,20.05
2018-07-06T02:21:24.964Z,20.06
2018-07-06T02:22:24.971Z,19.96
2018-07-06T02:23:25.023Z,19.98
2018-07-06T02:24:25.022Z,20.01
2018-07-06T02:25:24.968Z,20.02
2018-07-06T02:26:24.999Z,20.02
2018-07-06T02:27:24.979Z,20.05
2018-07-06T02:28:25.005Z,20.05
2018-07-06T02:29:24.995Z,20.08
2018-07-06T02:30:25.051Z,20.05
2018-07-06T02:31:25.128Z,20.11
2018-07-06T02:32:24.968Z,20.08
2018-07-06T02:33:25.016Z,20.08
2018-07-06T02:34:25.023Z,20.09
2018-07-06T02:35:24.972Z,20.08
2018-07-06T02:36:24.968Z,20.08
2018-07-06T02:37:24.992Z,20.09
2018-07-06T02:38:24.992Z,20.05
2018-07-06T02:39:24.965Z,20.02
2018-07-06T02:40:24.972Z,20.05
2018-07-06T02:41:24.966Z,20.04
2018-07-06T02:42:24.969Z,20.02
2018-07-06T02:43:25.021Z,19.99
2018-07-06T02:44:24.991Z,19.99
2018-07-06T02:45:24.968Z,19.98
2018-07-06T02:46:24.976Z,19.99
2018-07-06T02:47:24.993Z,19.99
2018-07-06T02:48:24.958Z,19.98
2018-07-06T02:49:24.989Z,19.99
2018-07-06T02:50:25.004Z,19.99
2018-07-06T02:51:25.104Z,19.96
2018-07-06T02:52:24.980Z,19.96
2018-07-06T02:53:24.959Z,19.93
2018-07-06T02:54:25.027Z,19.95
2018-07-06T02:55:24.987Z,19.99
2018-07-06T02:56:24.976Z,19.96
2018-07-06T02:57:25.022Z,19.96
2018-07-06T02:58:25.041Z,19.98
2018-07-06T02:59:24.982Z,20.01
2018-07-06T03:00:24.980Z,20.01
2018-07-06T03:01:24.989Z,19.99
2018-07-06T03:02:25.004Z,19.99
2018-07-06T03:03:25.695Z,20.04
2018-07-06T03:04:25.265Z,20.01
2018-07-06T03:05:24.965Z,20.01
2018-07-06T03:06:25.007Z,19.95
2018-07-06T03:07:24.964Z,19.93
2018-07-06T03:08:25.001Z,19.95
2018-07-06T03:09:24.999Z,19.91
2018-07-06T03:10:24.987Z,19.93
2018-07-06T03:11:25.217Z,19.93
2018-07-06T03:12:25.023Z,19.93
2018-07-06T03:13:25.160Z,19.92
2018-07-06T03:14:25.034Z,19.86
2018-07-06T03:15:24.981Z,19.88
2018-07-06T03:16:24.996Z,19.85
2018-07-06T03:17:24.980Z,19.88
2018-07-06T03:18:25.000Z,19.89
2018-07-06T03:19:25.002Z,19.92
2018-07-06T03:20:25.148Z,19.93
2018-07-06T03:21:24.957Z,19.93
2018-07-06T03:22:25.000Z,19.88
2018-07-06T03:23:24.986Z,19.91
2018-07-06T03:24:24.974Z,19.91
2018-07-06T03:25:25.025Z,19.84
2018-07-06T03:26:25.091Z,19.89
2018-07-06T03:27:24.944Z,19.84
2018-07-06T03:28:25.671Z,19.85
2018-07-06T03:29:25.000Z,19.84
2018-07-06T03:30:24.960Z,19.84
2018-07-06T03:31:25.014Z,19.75
2018-07-06T03:32:24.953Z,19.74
2018-07-06T03:33:24.955Z,19.77
2018-07-06T03:34:25.020Z,19.77
2018-07-06T03:35:25.037Z,19.75
2018-07-06T03:36:24.942Z,19.81
2018-07-06T03:37:25.130Z,19.81
2018-07-06T03:38:24.954Z,19.78
2018-07-06T03:39:25.044Z,19.79
2018-07-06T03:40:25.000Z,19.79
2018-07-06T03:41:24.999Z,19.78
2018-07-06T03:42:25.189Z,19.79
2018-07-06T03:43:24.934Z,19.77
2018-07-06T03:44:24.942Z,19.74
2018-07-06T03:45:25.006Z,19.74
2018-07-06T03:46:24.976Z,19.77
2018-07-06T03:47:24.959Z,19.77
2018-07-06T03:48:24.943Z,19.75
2018-07-06T03:49:26.400Z,19.72
2018-07-06T03:50:24.972Z,19.7
2018-07-06T03:51:24.966Z,19.7
2018-07-06T03:52:24.944Z,19.71
2018-07-06T03:53:24.971Z,19.72
2018-07-06T03:54:24.989Z,19.75
2018-07-06T03:55:24.932Z,19.74
2018-07-06T03:56:24.964Z,19.74
2018-07-06T03:57:24.961Z,19.74
2018-07-06T03:58:24.952Z,19.7
2018-07-06T03:59:24.985Z,19.7
2018-07-06T04:00:24.991Z,19.67
2018-07-06T04:01:24.930Z,19.68
2018-07-06T04:02:24.944Z,19.65
2018-07-06T04:03:24.990Z,19.67
2018-07-06T04:04:24.966Z,19.65
2018-07-06T04:05:24.976Z,19.61
2018-07-06T04:06:24.939Z,19.61
2018-07-06T04:07:25.127Z,19.62
2018-07-06T04:08:25.008Z,19.64
2018-07-06T04:09:24.981Z,19.62
2018-07-06T04:10:25.044Z,19.61
2018-07-06T04:11:24.945Z,19.61
2018-07-06T04:12:25.128Z,19.62
2018-07-06T04:13:24.962Z,19.65
2018-07-06T04:14:24.961Z,19.61
2018-07-06T04:15:25.095Z,19.61
2018-07-06T04:16:24.986Z,19.61
2018-07-06T04:17:25.068Z,19.62
2018-07-06T04:18:24.991Z,19.6
2018-07-06T04:19:25.000Z,19.6
2018-07-06T04:20:25.002Z,19.6
2018-07-06T04:21:24.946Z,19.58
2018-07-06T04:22:24.916Z,19.62
2018-07-06T04:23:25.032Z,19.65
2018-07-06T04:24:24.977Z,19.64
2018-07-06T04:25:24.992Z,19.6
2018-07-06T04:26:25.079Z,19.57
2018-07-06T04:27:24.988Z,19.6
2018-07-06T04:28:24.980Z,19.62
2018-07-06T04:29:24.952Z,19.6
2018-07-06T04:30:25.005Z,19.61
2018-07-06T04:31:24.946Z,19.62
2018-07-06T04:32:24.992Z,19.62
2018-07-06T04:33:24.968Z,19.65
2018-07-06T04:34:24.982Z,19.67
2018-07-06T04:35:24.976Z,19.67
2018-07-06T04:36:24.983Z,19.67
2018-07-06T04:37:25.000Z,19.65
2018-07-06T04:38:24.936Z,19.65
2018-07-06T04:39:24.935Z,19.65
2018-07-06T04:40:25.005Z,19.64
2018-07-06T04:41:25.010Z,19.65
2018-07-06T04:42:24.993Z,19.67
2018-07-06T04:43:25.017Z,19.64
2018-07-06T04:44:24.946Z,19.64
2018-07-06T04:45:25.112Z,19.62
2018-07-06T04:46:24.950Z,19.62
2018-07-06T04:47:24.928Z,19.62
2018-07-06T04:48:24.960Z,19.61
2018-07-06T04:49:25.008Z,19.62
2018-07-06T04:50:24.970Z,19.61
2018-07-06T04:51:24.931Z,19.62
2018-07-06T04:52:24.931Z,19.64
2018-07-06T04:53:25.054Z,19.61
2018-07-06T04:54:24.995Z,19.62
2018-07-06T04:55:24.937Z,19.61
2018-07-06T04:56:24.929Z,19.62
2018-07-06T04:57:24.931Z,19.65
2018-07-06T04:58:24.969Z,19.65
2018-07-06T04:59:24.967Z,19.65
2018-07-06T05:00:24.951Z,19.65
2018-07-06T05:01:24.937Z,19.65
2018-07-06T05:02:24.980Z,19.67
2018-07-06T05:03:24.962Z,19.7
2018-07-06T05:04:24.949Z,19.71
2018-07-06T05:05:24.962Z,19.7
2018-07-06T05:06:24.925Z,19.71
2018-07-06T05:07:24.932Z,19.71
2018-07-06T05:08:24.938Z,19.74
2018-07-06T05:09:24.975Z,19.78
2018-07-06T05:10:24.952Z,19.79
2018-07-06T05:11:24.950Z,19.84
2018-07-06T05:12:24.901Z,19.85
2018-07-06T05:13:24.925Z,19.88
2018-07-06T05:14:24.912Z,19.88
2018-07-06T05:15:24.980Z,19.92
2018-07-06T05:16:25.013Z,19.91
2018-07-06T05:17:24.947Z,19.92
2018-07-06T05:18:24.944Z,19.91
2018-07-06T05:19:24.978Z,19.98
2018-07-06T05:20:24.963Z,19.99
2018-07-06T05:21:25.025Z,20.04
2018-07-06T05:22:24.943Z,20.05
2018-07-06T05:23:24.969Z,20.04
2018-07-06T05:24:24.942Z,20.09
2018-07-06T05:25:25.076Z,20.09
2018-07-06T05:26:24.958Z,20.06
2018-07-06T05:27:24.950Z,20.06
2018-07-06T05:28:24.967Z,20.08
2018-07-06T05:29:25.042Z,20.09
2018-07-06T05:30:25.026Z,20.13
2018-07-06T05:31:24.953Z,20.12
2018-07-06T05:32:25.042Z,20.12
2018-07-06T05:33:24.952Z,20.13
2018-07-06T05:34:24.989Z,20.15
2018-07-06T05:35:24.930Z,20.19
2018-07-06T05:36:24.902Z,20.19
2018-07-06T05:37:24.976Z,20.19
2018-07-06T05:38:24.953Z,20.23
2018-07-06T05:39:24.971Z,20.29
2018-07-06T05:40:24.966Z,20.29
2018-07-06T05:41:24.991Z,20.26
2018-07-06T05:42:24.994Z,20.26
2018-07-06T05:43:25.220Z,20.23
2018-07-06T05:44:25.023Z,20.27
2018-07-06T05:45:24.915Z,20.3
2018-07-06T05:46:25.444Z,20.34
2018-07-06T05:47:25.178Z,20.36
2018-07-06T05:48:25.033Z,20.36
2018-07-06T05:49:24.911Z,20.4
2018-07-06T05:50:24.933Z,20.41
2018-07-06T05:51:24.972Z,20.47
2018-07-06T05:52:24.960Z,20.5
2018-07-06T05:53:25.136Z,20.52
2018-07-06T05:54:24.995Z,20.57
2018-07-06T05:55:24.935Z,20.58
2018-07-06T05:56:24.907Z,20.62
2018-07-06T05:57:25.008Z,20.64
2018-07-06T05:58:24.946Z,20.7
2018-07-06T05:59:25.006Z,20.65
2018-07-06T06:00:24.938Z,20.68
2018-07-06T06:01:24.959Z,20.71
2018-07-06T06:02:24.991Z,20.75
2018-07-06T06:03:25.092Z,20.74
2018-07-06T06:04:24.962Z,20.7
2018-07-06T06:05:24.900Z,20.7
2018-07-06T06:06:25.030Z,20.7
2018-07-06T06:07:24.967Z,20.72
2018-07-06T06:08:24.914Z,20.72
2018-07-06T06:09:24.950Z,20.75
2018-07-06T06:10:24.965Z,20.74
2018-07-06T06:11:25.112Z,20.75
2018-07-06T06:12:25.069Z,20.77
2018-07-06T06:13:25.243Z,20.81
2018-07-06T06:14:25.349Z,20.78
2018-07-06T06:15:25.124Z,20.79
2018-07-06T06:16:25.224Z,20.79
2018-07-06T06:17:24.926Z,20.82
2018-07-06T06:18:25.165Z,20.81
2018-07-06T06:19:24.905Z,20.81
2018-07-06T06:20:24.911Z,20.81
2018-07-06T06:21:24.902Z,20.79
2018-07-06T06:22:24.880Z,20.82
2018-07-06T06:23:24.918Z,20.84
2018-07-06T06:24:24.895Z,20.85
2018-07-06T06:25:24.933Z,20.87
2018-07-06T06:26:24.874Z,20.85
2018-07-06T06:27:25.005Z,20.82
2018-07-06T06:28:24.988Z,20.75
2018-07-06T06:29:24.992Z,20.77
2018-07-06T06:30:24.963Z,20.75
2018-07-06T06:31:24.977Z,20.77
2018-07-06T06:32:24.923Z,20.79
2018-07-06T06:33:25.889Z,20.82
2018-07-06T06:34:25.055Z,20.77
2018-07-06T06:35:24.968Z,20.77
2018-07-06T06:36:25.109Z,20.79
2018-07-06T06:37:24.983Z,20.82
2018-07-06T06:38:25.020Z,20.85
2018-07-06T06:39:24.999Z,20.89
2018-07-06T06:40:25.004Z,20.94
2018-07-06T06:41:24.912Z,20.95
2018-07-06T06:42:25.022Z,21.01
2018-07-06T06:43:25.106Z,21.02
2018-07-06T06:44:24.940Z,21.05
2018-07-06T06:45:25.216Z,21.07
2018-07-06T06:46:24.982Z,21.15
2018-07-06T06:47:24.958Z,21.13
2018-07-06T06:48:24.997Z,21.13
2018-07-06T06:49:24.979Z,21.17
2018-07-06T06:50:25.090Z,21.24
2018-07-06T06:51:24.918Z,21.24
2018-07-06T06:52:24.961Z,21.27
2018-07-06T06:53:25.069Z,21.32
2018-07-06T06:54:25.000Z,21.34
2018-07-06T06:55:24.902Z,21.39
2018-07-06T06:56:24.976Z,21.44
2018-07-06T06:57:25.107Z,21.44
2018-07-06T06:58:24.896Z,21.46
2018-07-06T06:59:25.058Z,21.49
2018-07-06T07:00:28.014Z,21.49
2018-07-06T07:01:25.122Z,21.5
2018-07-06T07:02:25.016Z,21.49
2018-07-06T07:03:25.055Z,21.5
2018-07-06T07:04:24.966Z,21.51
2018-07-06T07:05:24.971Z,21.54
2018-07-06T07:06:25.005Z,21.53
2018-07-06T07:07:25.360Z,21.53
2018-07-06T07:08:26.055Z,21.53
2018-07-06T07:09:25.014Z,21.54
2018-07-06T07:10:25.057Z,21.54
2018-07-06T07:11:24.965Z,21.56
2018-07-06T07:12:24.947Z,21.54
2018-07-06T07:13:24.958Z,21.51
2018-07-06T07:14:25.109Z,21.54
2018-07-06T07:15:25.004Z,21.54
2018-07-06T07:16:25.015Z,21.56
2018-07-06T07:17:24.923Z,21.58
2018-07-06T07:18:24.905Z,21.62
2018-07-06T07:19:24.960Z,21.62
2018-07-06T07:20:24.900Z,21.61
2018-07-06T07:21:24.889Z,21.61
2018-07-06T07:22:24.901Z,21.64
2018-07-06T07:23:24.977Z,21.68
2018-07-06T07:24:24.979Z,21.65
2018-07-06T07:25:24.861Z,21.61
2018-07-06T07:26:24.889Z,21.64
2018-07-06T07:27:24.989Z,21.67
2018-07-06T07:28:24.990Z,21.74
2018-07-06T07:29:24.908Z,21.78
2018-07-06T07:30:24.891Z,21.81
2018-07-06T07:31:24.890Z,21.88
2018-07-06T07:32:24.924Z,21.91
2018-07-06T07:33:24.907Z,21.96
2018-07-06T07:34:24.887Z,21.99
2018-07-06T07:35:24.918Z,22.01
2018-07-06T07:36:25.361Z,21.99
2018-07-06T07:37:24.948Z,21.94
2018-07-06T07:38:24.870Z,21.98
2018-07-06T07:39:25.038Z,21.98
2018-07-06T07:40:24.906Z,21.98
2018-07-06T07:41:24.955Z,21.95
2018-07-06T07:42:25.012Z,21.98
2018-07-06T07:43:24.888Z,21.98
2018-07-06T07:44:24.987Z,21.96
2018-07-06T07:45:25.095Z,21.94
2018-07-06T07:46:25.120Z,21.96
2018-07-06T07:47:24.951Z,21.98
2018-07-06T07:48:24.938Z,21.99
2018-07-06T07:49:24.964Z,21.98
2018-07-06T07:50:25.430Z,22.05
2018-07-06T07:51:24.897Z,22.01
2018-07-06T07:52:25.089Z,21.95
2018-07-06T07:53:26.412Z,21.92
2018-07-06T07:54:25.079Z,21.98
2018-07-06T07:55:24.994Z,21.98
2018-07-06T07:56:24.931Z,22.05
2018-07-06T07:57:24.997Z,22.09
2018-07-06T07:58:24.962Z,22.09
2018-07-06T07:59:24.932Z,22.13
2018-07-06T08:00:25.383Z,22.23
2018-07-06T08:01:25.747Z,22.27
2018-07-06T08:02:24.959Z,22.29
2018-07-06T08:03:24.978Z,22.27
2018-07-06T08:04:25.032Z,22.27
2018-07-06T08:05:24.920Z,22.27
2018-07-06T08:06:25.017Z,22.22
2018-07-06T08:07:24.867Z,22.24
2018-07-06T08:08:24.946Z,22.23
2018-07-06T08:09:24.950Z,22.11
2018-07-06T08:10:25.011Z,22.09
2018-07-06T08:11:24.945Z,22.09
2018-07-06T08:12:24.864Z,22.17
2018-07-06T08:13:24.966Z,22.2
2018-07-06T08:14:25.161Z,22.29
2018-07-06T08:15:24.962Z,22.33
2018-07-06T08:16:24.997Z,22.26
2018-07-06T08:17:24.874Z,22.3
2018-07-06T08:18:25.202Z,22.3
2018-07-06T08:19:24.968Z,22.33
2018-07-06T08:20:24.951Z,22.41
2018-07-06T08:21:25.085Z,22.5
2018-07-06T08:22:24.964Z,22.51
2018-07-06T08:23:24.900Z,22.51
2018-07-06T08:24:24.983Z,22.5
2018-07-06T08:25:24.998Z,22.47
2018-07-06T08:26:24.917Z,22.46
2018-07-06T08:27:24.909Z,22.46
2018-07-06T08:28:25.033Z,22.5
2018-07-06T08:29:25.099Z,22.53
2018-07-06T08:30:25.307Z,22.63
2018-07-06T08:31:24.958Z,22.64
2018-07-06T08:32:24.953Z,22.76
2018-07-06T08:33:24.860Z,22.81
2018-07-06T08:34:24.867Z,22.89
2018-07-06T08:35:24.859Z,22.89
2018-07-06T08:36:25.006Z,22.82
2018-07-06T08:37:24.952Z,22.78
2018-07-06T08:38:24.852Z,22.79
2018-07-06T08:39:25.162Z,22.82
2018-07-06T08:40:24.912Z,22.86
2018-07-06T08:41:24.862Z,22.79
2018-07-06T08:42:24.877Z,22.68
2018-07-06T08:43:24.885Z,22.6
2018-07-06T08:44:24.893Z,22.64
2018-07-06T08:45:24.872Z,22.56
2018-07-06T08:46:24.856Z,22.53
2018-07-06T08:47:24.881Z,22.54
2018-07-06T08:48:24.947Z,22.51
2018-07-06T08:49:25.031Z,22.54
2018-07-06T08:50:25.186Z,22.64
2018-07-06T08:51:25.550Z,22.65
2018-07-06T08:52:25.047Z,22.72
2018-07-06T08:53:24.880Z,22.76
2018-07-06T08:54:24.989Z,22.82
2018-07-06T08:55:24.973Z,22.89
2018-07-06T08:56:24.990Z,22.94
2018-07-06T08:57:25.088Z,22.98
2018-07-06T08:58:25.069Z,23.15
2018-07-06T08:59:24.872Z,23.15
2018-07-06T09:00:24.962Z,23.12
2018-07-06T09:01:24.981Z,23.12
2018-07-06T09:02:24.891Z,23.01
2018-07-06T09:03:25.007Z,23.05
2018-07-06T09:04:26.256Z,23.07
2018-07-06T09:05:25.007Z,23.13
2018-07-06T09:06:25.144Z,23.25
2018-07-06T09:07:24.851Z,23.27
2018-07-06T09:08:24.881Z,23.3
2018-07-06T09:09:25.177Z,23.41
2018-07-06T09:10:25.516Z,23.46
2018-07-06T09:11:25.186Z,23.47
2018-07-06T09:12:25.013Z,23.43
2018-07-06T09:13:24.885Z,23.41
2018-07-06T09:14:25.121Z,23.51
2018-07-06T09:15:25.020Z,23.56
2018-07-06T09:16:24.843Z,23.62
2018-07-06T09:17:24.916Z,23.67
2018-07-06T09:18:24.862Z,23.64
2018-07-06T09:19:25.074Z,23.65
2018-07-06T09:20:25.040Z,23.69
2018-07-06T09:21:25.021Z,23.87
2018-07-06T09:22:24.884Z,23.82
2018-07-06T09:23:24.962Z,23.92
2018-07-06T09:24:24.978Z,24.03
2018-07-06T09:25:26.302Z,24.17
2018-07-06T09:26:24.924Z,24.15
2018-07-06T09:27:24.885Z,24.12
2018-07-06T09:28:24.852Z,24.01
2018-07-06T09:29:24.942Z,23.92
2018-07-06T09:30:25.010Z,23.92
2018-07-06T09:31:25.089Z,23.88
2018-07-06T09:32:25.177Z,23.85
2018-07-06T09:33:25.337Z,23.82
2018-07-06T09:34:24.845Z,23.8
2018-07-06T09:35:25.035Z,23.73
2018-07-06T09:36:24.844Z,23.68
2018-07-06T09:37:24.985Z,23.67
2018-07-06T09:38:24.883Z,23.62
2018-07-06T09:39:24.957Z,23.61
2018-07-06T09:40:24.850Z,23.65
2018-07-06T09:41:24.984Z,23.74
2018-07-06T09:42:24.980Z,23.84
2018-07-06T09:43:25.382Z,23.93
2018-07-06T09:44:24.889Z,24.09
2018-07-06T09:45:24.845Z,24.19
2018-07-06T09:46:24.832Z,24.1
2018-07-06T09:47:24.836Z,24.05
2018-07-06T09:48:24.914Z,23.98
2018-07-06T09:49:24.866Z,23.88
2018-07-06T09:50:24.835Z,23.78
2018-07-06T09:51:24.910Z,23.75
2018-07-06T09:52:24.923Z,23.81
2018-07-06T09:53:24.873Z,23.87
2018-07-06T09:54:24.865Z,23.99
2018-07-06T09:55:24.861Z,24.06
2018-07-06T09:56:24.924Z,24.08
2018-07-06T09:57:27.138Z,24.2
2018-07-06T09:58:24.818Z,24.33
2018-07-06T09:59:24.843Z,24.43
2018-07-06T10:00:24.858Z,24.74
2018-07-06T10:01:25.090Z,24.78
2018-07-06T10:02:24.882Z,24.81
2018-07-06T10:03:24.851Z,24.65
2018-07-06T10:04:25.778Z,24.57
2018-07-06T10:05:25.007Z,24.51
2018-07-06T10:06:24.873Z,24.42
2018-07-06T10:07:25.013Z,24.44
2018-07-06T10:08:26.003Z,24.64
2018-07-06T10:09:25.067Z,24.64
2018-07-06T10:10:24.994Z,24.63
2018-07-06T10:11:25.008Z,24.55
2018-07-06T10:12:25.000Z,24.58
2018-07-06T10:13:24.924Z,24.67
2018-07-06T10:14:25.210Z,24.74
2018-07-06T10:15:25.109Z,24.65
2018-07-06T10:16:25.018Z,24.64
2018-07-06T10:17:24.952Z,24.61
2018-07-06T10:18:25.241Z,24.64
2018-07-06T10:19:25.326Z,24.68
2018-07-06T10:20:25.139Z,24.75
2018-07-06T10:21:25.058Z,24.74
2018-07-06T10:22:24.980Z,24.91
2018-07-06T10:23:24.853Z,24.81
2018-07-06T10:24:24.980Z,24.82
2018-07-06T10:25:24.882Z,24.72
2018-07-06T10:26:25.908Z,24.7
2018-07-06T10:27:24.998Z,24.7
2018-07-06T10:28:25.104Z,24.57
2018-07-06T10:29:25.212Z,24.63
2018-07-06T10:30:25.125Z,24.81
2018-07-06T10:31:25.044Z,24.82
2018-07-06T10:32:25.137Z,24.89
2018-07-06T10:33:25.187Z,24.94
2018-07-06T10:34:25.170Z,25.01
2018-07-06T10:35:25.045Z,25.02
2018-07-06T10:36:24.968Z,25.06
2018-07-06T10:37:25.077Z,24.92
2018-07-06T10:38:25.076Z,24.86
2018-07-06T10:39:26.206Z,24.83
2018-07-06T10:40:24.992Z,24.86
2018-07-06T10:41:24.987Z,24.97
2018-07-06T10:42:24.992Z,25.03
2018-07-06T10:43:24.809Z,25.16
2018-07-06T10:44:24.910Z,25.3
2018-07-06T10:45:24.939Z,25.41
2018-07-06T10:46:25.033Z,25.37
2018-07-06T10:47:25.344Z,25.4
2018-07-06T10:48:24.830Z,25.4
2018-07-06T10:49:25.061Z,25.3
2018-07-06T10:50:24.932Z,25.43
2018-07-06T10:51:24.971Z,25.34
2018-07-06T10:52:24.972Z,25.2
2018-07-06T10:53:24.877Z,25.2
2018-07-06T10:54:25.109Z,25.29
2018-07-06T10:55:25.937Z,25.3
2018-07-06T10:56:24.818Z,25.27
2018-07-06T10:57:24.904Z,25.33
2018-07-06T10:58:24.947Z,25.26
2018-07-06T10:59:25.284Z,25.19
2018-07-06T11:00:24.929Z,25.17
2018-07-06T11:01:24.933Z,25.13
2018-07-06T11:02:24.958Z,25.15
2018-07-06T11:03:24.808Z,25.19
2018-07-06T11:04:25.061Z,25.09
2018-07-06T11:05:25.067Z,25.13
2018-07-06T11:06:24.829Z,25.12
2018-07-06T11:07:24.799Z,25.13
2018-07-06T11:08:25.898Z,25.19
2018-07-06T11:09:24.814Z,25.26
2018-07-06T11:10:24.924Z,25.27
2018-07-06T11:11:24.919Z,25.51
2018-07-06T11:12:24.898Z,25.67
2018-07-06T11:13:25.017Z,25.7
2018-07-06T11:14:24.818Z,25.71
2018-07-06T11:15:24.810Z,25.71
2018-07-06T11:16:25.137Z,25.92
2018-07-06T11:17:24.945Z,25.95
2018-07-06T11:18:24.842Z,25.95
2018-07-06T11:19:25.086Z,25.75
2018-07-06T11:20:25.098Z,25.67
2018-07-06T11:21:24.861Z,25.65
2018-07-06T11:22:25.087Z,25.68
2018-07-06T11:23:24.947Z,25.75
2018-07-06T11:24:25.213Z,25.81
2018-07-06T11:25:25.293Z,25.84
2018-07-06T11:26:25.027Z,25.89
2018-07-06T11:27:24.870Z,25.99
2018-07-06T11:28:25.217Z,26.09
2018-07-06T11:29:24.861Z,26.16
2018-07-06T11:30:24.959Z,26.25
2018-07-06T11:31:25.042Z,26.33
2018-07-06T11:32:24.815Z,26.4
2018-07-06T11:33:24.971Z,26.54
2018-07-06T11:34:25.056Z,26.4
2018-07-06T11:35:25.276Z,26.27
2018-07-06T11:36:24.856Z,26.16
2018-07-06T11:37:26.006Z,25.93
2018-07-06T11:38:25.010Z,26
2018-07-06T11:39:24.832Z,26.25
2018-07-06T11:40:24.999Z,26.29
2018-07-06T11:41:24.991Z,26.3
2018-07-06T11:42:25.000Z,26.36
2018-07-06T11:43:25.010Z,26.37
2018-07-06T11:44:25.054Z,26.39
2018-07-06T11:45:24.973Z,26.46
2018-07-06T11:46:24.943Z,26.51
2018-07-06T11:47:24.828Z,26.68
2018-07-06T11:48:24.798Z,26.65
2018-07-06T11:49:26.132Z,26.64
2018-07-06T11:50:25.145Z,26.57
2018-07-06T11:51:24.999Z,26.54
2018-07-06T11:52:24.985Z,26.54
2018-07-06T11:53:24.965Z,26.51
2018-07-06T11:54:24.853Z,26.47
2018-07-06T11:55:25.127Z,26.54
2018-07-06T11:56:25.508Z,26.61
2018-07-06T11:57:24.828Z,26.62
2018-07-06T11:58:25.148Z,26.64
2018-07-06T11:59:24.811Z,26.51
2018-07-06T12:00:24.949Z,26.51
2018-07-06T12:01:24.981Z,26.48
2018-07-06T12:02:24.941Z,26.47
2018-07-06T12:03:24.948Z,26.47
2018-07-06T12:04:25.564Z,26.47
2018-07-06T12:05:24.991Z,26.46
2018-07-06T12:06:24.993Z,26.55
2018-07-06T12:07:24.876Z,26.54
2018-07-06T12:08:25.003Z,26.61
2018-07-06T12:09:24.829Z,26.7
2018-07-06T12:10:24.914Z,26.78
2018-07-06T12:11:24.840Z,26.92
2018-07-06T12:12:24.817Z,26.94
2018-07-06T12:13:24.928Z,26.81
2018-07-06T12:14:24.779Z,26.65
2018-07-06T12:15:24.844Z,26.7
2018-07-06T12:16:24.809Z,26.81
2018-07-06T12:17:24.813Z,26.68
2018-07-06T12:18:24.826Z,26.54
2018-07-06T12:19:24.803Z,26.53
2018-07-06T12:20:24.813Z,26.5
2018-07-06T12:21:25.051Z,26.58
2018-07-06T12:22:24.838Z,26.71
2018-07-06T12:23:24.823Z,26.78
2018-07-06T12:24:25.011Z,26.84
2018-07-06T12:25:24.803Z,26.87
2018-07-06T12:26:24.831Z,26.84
2018-07-06T12:27:24.874Z,26.74
2018-07-06T12:28:24.860Z,26.72
2018-07-06T12:29:24.803Z,26.77
2018-07-06T12:30:24.989Z,26.89
2018-07-06T12:31:24.828Z,27.05
2018-07-06T12:32:24.800Z,27.07
2018-07-06T12:33:24.828Z,27.12
2018-07-06T12:34:24.965Z,27.29
2018-07-06T12:35:24.873Z,27.33
2018-07-06T12:36:25.023Z,27.33
2018-07-06T12:37:24.802Z,27.26
2018-07-06T12:38:24.912Z,27.05
2018-07-06T12:39:24.865Z,27.02
2018-07-06T12:40:25.122Z,27.07
2018-07-06T12:41:24.882Z,27.32
2018-07-06T12:42:24.810Z,27.34
2018-07-06T12:43:24.798Z,27.57
2018-07-06T12:44:24.976Z,27.4
2018-07-06T12:45:25.492Z,27.43
2018-07-06T12:46:24.802Z,27.47
2018-07-06T12:47:25.076Z,27.5
2018-07-06T12:48:24.925Z,27.37
2018-07-06T12:49:24.988Z,27.32
2018-07-06T12:50:24.954Z,27.49
2018-07-06T12:51:25.057Z,27.65
2018-07-06T12:52:25.540Z,27.47
2018-07-06T12:53:25.049Z,27.56
2018-07-06T12:54:24.852Z,27.7
2018-07-06T12:55:25.933Z,27.82